Time;durP1;ratioP1;P1;durP2;ratioP2;P2;SDS_P1;SDS_P2;PMS_P1;PMS_P2;Temp;Humidity;BMP_temperature;BMP_pressure;BME280_temperature;BME280_humidity;BME280_pressure;Samples;Min_cycle;Max_cycle;Signal;HPM_P1;HPM_P2
2021/04/01 00:01:08;;;;;;;42.90;26.00;;;;;;;14.43;69.56;100334.33;1772388;79;20955;-69
2021/04/01 00:03:34;;;;;;;37.80;24.12;;;;;;;14.43;69.49;100330.34;1748166;80;21193;-68
2021/04/01 00:06:00;;;;;;;39.73;23.92;;;;;;;14.46;69.39;100327.33;1748532;80;21670;-68
2021/04/01 00:08:26;;;;;;;45.25;25.30;;;;;;;14.45;69.36;100327.84;1755197;80;21777;-69
2021/04/01 00:10:52;;;;;;;41.37;25.30;;;;;;;14.38;69.62;100320.75;1768975;80;21596;-69
2021/04/01 00:13:18;;;;;;;41.15;25.40;;;;;;;14.46;69.23;100326.00;1751982;80;21141;-69
2021/04/01 00:15:44;;;;;;;42.08;24.12;;;;;;;14.47;69.13;100323.68;1758185;80;21029;-70
2021/04/01 00:18:16;;;;;;;48.55;27.10;;;;;;;14.44;69.21;100318.72;1746520;80;21215;-70
2021/04/01 00:20:42;;;;;;;44.63;25.70;;;;;;;14.36;69.50;100313.78;1758218;80;21649;-70
2021/04/01 00:23:08;;;;;;;42.30;26.23;;;;;;;14.35;69.62;100310.78;1752691;79;21560;-71
2021/04/01 00:25:34;;;;;;;44.77;27.95;;;;;;;14.41;69.45;100311.10;1753310;80;22155;-70
2021/04/01 00:28:00;;;;;;;46.53;26.52;;;;;;;14.31;69.76;100308.18;1752189;80;21133;-70
2021/04/01 00:30:26;;;;;;;47.85;28.05;;;;;;;14.24;70.06;100304.56;1754658;80;21124;-70
2021/04/01 00:32:52;;;;;;;42.80;26.75;;;;;;;14.24;70.13;100297.92;1753867;80;21547;-70
2021/04/01 00:35:18;;;;;;;45.28;27.45;;;;;;;14.24;70.07;100294.45;1749523;80;20996;-71
2021/04/01 00:37:43;;;;;;;45.70;26.97;;;;;;;14.20;70.35;100293.98;1778503;79;21643;-71
2021/04/01 00:40:11;;;;;;;42.43;26.55;;;;;;;14.28;69.81;100287.80;1760860;80;21625;-71
2021/04/01 00:42:36;;;;;;;;;;;;;;;14.33;69.56;100286.23;1756891;79;21179;-71
2021/04/01 00:45:09;;;;;;;44.30;26.90;;;;;;;14.34;69.64;100283.91;1755875;80;21283;-71
2021/04/01 00:47:45;;;;;;;45.05;26.80;;;;;;;14.29;69.63;100288.94;1750655;80;21195;-71
2021/04/01 00:50:15;;;;;;;46.20;28.30;;;;;;;14.26;69.89;100283.98;1750689;80;21211;-72
2021/04/01 00:52:41;;;;;;;47.75;28.40;;;;;;;14.30;69.57;100283.12;1759781;80;21222;-72
2021/04/01 00:55:08;;;;;;;43.85;27.82;;;;;;;14.30;69.76;100277.80;1765568;80;21016;-71
2021/04/01 00:57:34;;;;;;;46.00;27.25;;;;;;;14.20;69.89;100272.73;1771095;79;21198;-71
2021/04/01 01:00:00;;;;;;;44.93;26.33;;;;;;;14.25;69.67;100268.22;1753300;79;21025;-71
2021/04/01 01:02:26;;;;;;;41.83;27.50;;;;;;;14.11;70.15;100264.50;1751454;80;20982;-70
2021/04/01 01:04:52;;;;;;;45.05;26.95;;;;;;;14.03;70.51;100259.22;1756733;80;21017;-70
2021/04/01 01:07:18;;;;;;;45.20;27.45;;;;;;;14.04;70.45;100256.91;1763973;80;21510;-70
2021/04/01 01:09:44;;;;;;;49.90;28.73;;;;;;;14.02;70.43;100258.41;1755552;80;21307;-70
2021/04/01 01:12:10;;;;;;;43.73;26.93;;;;;;;13.92;70.87;100248.50;1744919;80;21720;-69
2021/04/01 01:14:35;;;;;;;44.50;27.25;;;;;;;13.93;70.88;100244.34;1742395;80;21544;-70
2021/04/01 01:17:03;;;;;;;41.95;26.42;;;;;;;14.03;70.32;100243.29;1751177;80;21451;-68
2021/04/01 01:19:36;;;;;;;42.78;25.92;;;;;;;14.07;70.14;100242.76;1766580;79;26980;-70
2021/04/01 01:22:03;;;;;;;43.30;28.00;;;;;;;14.14;69.83;100238.92;1755827;80;22199;-70
2021/04/01 01:24:29;;;;;;;44.33;27.35;;;;;;;14.13;69.68;100235.92;1762982;79;28189;-70
2021/04/01 01:26:55;;;;;;;46.98;27.40;;;;;;;14.13;69.86;100230.62;1752419;79;21671;-70
2021/04/01 01:29:21;;;;;;;48.58;28.70;;;;;;;14.13;69.75;100227.96;1755951;80;21150;-70
2021/04/01 01:31:49;;;;;;;42.33;26.82;;;;;;;14.18;69.49;100224.26;1762564;80;37134;-69
2021/04/01 01:34:17;;;;;;;45.92;28.92;;;;;;;14.22;69.25;100220.25;1763467;80;21219;-69
2021/04/01 01:36:43;;;;;;;;;;;;;;;14.23;69.05;100215.28;1753608;80;21178;-69
2021/04/01 01:39:08;;;;;;;47.70;27.87;;;;;;;14.22;68.98;100206.98;1758977;80;20231;-70
2021/04/01 01:41:34;;;;;;;47.40;29.65;;;;;;;14.22;69.14;100212.29;1763895;80;20959;-69
2021/04/01 01:44:00;;;;;;;48.50;29.25;;;;;;;14.21;69.12;100209.30;1770690;79;21055;-69
2021/04/01 01:46:26;;;;;;;50.63;29.85;;;;;;;14.17;68.99;100215.98;1774547;79;21324;-69
2021/04/01 01:48:52;;;;;;;49.15;29.72;;;;;;;14.13;69.24;100209.38;1774416;79;21028;-69
2021/04/01 01:51:18;;;;;;;45.63;29.52;;;;;;;14.16;69.00;100213.00;1775019;79;20975;-69
2021/04/01 01:53:44;;;;;;;47.53;29.70;;;;;;;14.14;69.22;100207.05;1778119;79;21126;-69
2021/04/01 01:56:09;;;;;;;48.80;30.12;;;;;;;14.15;69.16;100198.06;1765395;79;21119;-69
2021/04/01 01:58:35;;;;;;;50.15;31.20;;;;;;;14.13;69.14;100195.58;1764610;79;21597;-69
2021/04/01 02:01:02;;;;;;;52.33;30.55;;;;;;;14.10;69.21;100190.63;1780715;79;21166;-69
2021/04/01 02:03:28;;;;;;;52.30;31.95;;;;;;;14.11;69.11;100186.16;1768282;79;21196;-70
2021/04/01 02:05:54;;;;;;;51.27;31.93;;;;;;;13.99;69.75;100182.58;1749108;79;20945;-69
2021/04/01 02:08:20;;;;;;;53.42;33.85;;;;;;;14.03;69.65;100177.75;1772399;79;20945;-69
2021/04/01 02:10:49;;;;;;;53.05;32.75;;;;;;;13.98;69.57;100176.96;1769451;79;21270;-70
2021/04/01 02:13:17;;;;;;;53.58;32.53;;;;;;;13.91;70.08;100173.35;1768309;79;21232;-69
2021/04/01 02:15:44;;;;;;;52.95;33.13;;;;;;;13.72;70.78;100175.13;1778535;79;21693;-69
2021/04/01 02:18:17;;;;;;;56.58;32.20;;;;;;;13.53;71.73;100173.29;1768563;79;21172;-69
2021/04/01 02:20:46;;;;;;;52.13;33.58;;;;;;;13.38;73.44;100172.37;1762311;79;21204;-69
2021/04/01 02:23:15;;;;;;;54.98;34.35;;;;;;;13.31;73.53;100174.03;1772365;79;22075;-69
2021/04/01 02:25:42;;;;;;;58.05;36.08;;;;;;;13.26;73.48;100172.71;1770561;79;21236;-68
2021/04/01 02:28:08;;;;;;;56.68;33.92;;;;;;;13.29;73.20;100164.41;1764110;79;21086;-68
2021/04/01 02:30:34;;;;;;;55.73;34.00;;;;;;;13.39;72.47;100168.70;1775601;79;22600;-68
2021/04/01 02:33:00;;;;;;;57.23;34.70;;;;;;;13.42;72.46;100160.40;1774292;79;21195;-68
2021/04/01 02:35:26;;;;;;;56.05;34.33;;;;;;;13.44;72.13;100158.42;1765474;79;21224;-69
2021/04/01 02:37:51;;;;;;;57.75;34.70;;;;;;;13.56;71.44;100155.66;1766578;79;20958;-68
2021/04/01 02:40:17;;;;;;;62.25;35.92;;;;;;;13.55;71.41;100160.66;1780668;79;22474;-68
2021/04/01 02:42:43;;;;;;;60.38;35.28;;;;;;;13.57;70.40;100155.18;1770868;79;21026;-68
2021/04/01 02:45:10;;;;;;;61.20;35.88;;;;;;;13.56;70.52;100149.03;1754073;79;21139;-68
2021/04/01 02:47:36;;;;;;;59.58;35.90;;;;;;;13.56;70.61;100147.70;1756343;80;22523;-69
2021/04/01 02:50:06;;;;;;;65.00;36.00;;;;;;;13.58;70.35;100154.16;1742105;80;21048;-69
2021/04/01 02:52:32;;;;;;;65.40;36.13;;;;;;;13.55;70.13;100151.38;1751632;80;21207;-70
2021/04/01 02:54:57;;;;;;;66.05;36.65;;;;;;;13.53;69.99;100146.75;1747751;80;21058;-68
2021/04/01 02:57:23;;;;;;;67.75;37.28;;;;;;;13.45;70.45;100141.48;1748241;79;20946;-69
2021/04/01 02:59:49;;;;;;;62.73;37.38;;;;;;;13.51;69.73;100132.82;1767839;80;21523;-69
2021/04/01 03:02:17;;;;;;;63.38;37.58;;;;;;;13.49;69.69;100130.86;1770896;79;20997;-70
2021/04/01 03:04:44;;;;;;;69.55;37.55;;;;;;;13.49;69.16;100136.67;1755625;79;21177;-68
2021/04/01 03:07:09;;;;;;;66.62;37.78;;;;;;;13.45;68.88;100133.52;1759573;80;21233;-69
2021/04/01 03:09:36;;;;;;;76.28;38.90;;;;;;;13.45;68.63;100129.54;1755887;80;20906;-69
2021/04/01 03:12:03;;;;;;;64.07;37.67;;;;;;;13.43;68.46;100127.58;1747214;80;22356;-67
2021/04/01 03:14:29;;;;;;;69.20;39.78;;;;;;;13.36;68.86;100126.61;1765226;80;21176;-69
2021/04/01 03:16:55;;;;;;;70.90;38.53;;;;;;;13.32;68.88;100131.93;1758851;80;21545;-69
2021/04/01 03:19:20;;;;;;;63.42;36.33;;;;;;;13.27;69.18;100126.64;1746773;80;21011;-68
2021/04/01 03:21:46;;;;;;;64.58;38.15;;;;;;;13.13;70.52;100125.21;1761434;80;21050;-69
2021/04/01 03:24:13;;;;;;;60.98;36.68;;;;;;;13.11;70.35;100126.71;1754527;80;21657;-69
2021/04/01 03:26:39;;;;;;;61.77;37.28;;;;;;;13.00;70.83;100119.97;1755185;80;21545;-71
2021/04/01 03:29:05;;;;;;;63.35;36.80;;;;;;;12.73;71.03;100114.63;1753122;80;21173;-70
2021/04/01 03:31:31;;;;;;;64.27;37.48;;;;;;;12.56;71.23;100118.64;1764555;80;21199;-69
2021/04/01 03:33:57;;;;;;;66.22;37.00;;;;;;;12.42;71.82;100107.94;1765992;80;20959;-69
2021/04/01 03:36:23;;;;;;;61.28;36.88;;;;;;;12.33;72.59;100111.91;1772445;80;21446;-69
2021/04/01 03:38:49;;;;;;;61.50;37.78;;;;;;;12.25;73.07;100099.20;1761014;80;21022;-69
2021/04/01 03:41:15;;;;;;;63.20;37.87;;;;;;;12.32;72.94;100104.97;1752701;80;21175;-70
2021/04/01 03:43:41;;;;;;;63.65;38.15;;;;;;;12.13;74.33;100099.52;1752086;80;21175;-70
2021/04/01 03:46:08;;;;;;;63.28;39.73;;;;;;;12.02;75.15;100097.23;1758108;80;20958;-69
2021/04/01 03:48:34;;;;;;;66.23;39.40;;;;;;;11.90;76.77;100100.70;1772193;79;21194;-68
2021/04/01 03:51:00;;;;;;;65.05;39.60;;;;;;;11.88;76.60;100099.20;1765695;80;21006;-69
2021/04/01 03:53:26;;;;;;;63.68;39.53;;;;;;;11.75;77.10;100093.09;1762307;79;21044;-69
2021/04/01 03:55:52;;;;;;;60.12;37.58;;;;;;;11.75;77.76;100101.84;1754753;80;21043;-69
2021/04/01 03:58:45;;;;;;;61.83;37.63;;;;;;;11.86;76.50;100092.24;1749418;80;22421;-69
2021/04/01 04:06:33;;;;;;;68.20;39.15;;;;;;;11.71;78.76;100092.56;1749249;79;21529;-68
2021/04/01 04:16:20;;;;;;;64.12;39.80;;;;;;;11.54;80.25;100085.63;1746190;80;21241;-68
2021/04/01 04:18:46;;;;;;;58.70;37.03;;;;;;;11.54;79.79;100073.22;1750644;80;25351;-68
2021/04/01 04:21:13;;;;;;;63.87;40.63;;;;;;;11.54;79.85;100069.76;1750332;80;21392;-67
2021/04/01 04:23:42;;;;;;;63.17;38.60;;;;;;;11.46;80.00;100064.78;1757990;80;21571;-68
2021/04/01 04:26:06;;;;;;;;;;;;;;;11.40;80.12;100064.11;1752916;80;21225;-68
2021/04/01 04:28:36;;;;;;;66.50;39.75;;;;;;;11.36;80.40;100062.81;1761660;80;27442;-67
2021/04/01 04:31:02;;;;;;;66.77;39.08;;;;;;;11.39;80.14;100057.19;1766990;80;21179;-67
2021/04/01 04:33:28;;;;;;;62.17;39.60;;;;;;;11.30;80.59;100061.63;1763013;79;21204;-68
2021/04/01 04:35:54;;;;;;;61.30;38.88;;;;;;;11.40;80.20;100061.98;1753170;79;20941;-69
2021/04/01 04:38:19;;;;;;;66.25;41.53;;;;;;;11.40;80.44;100057.50;1747002;80;21226;-69
2021/04/01 04:40:46;;;;;;;65.15;39.48;;;;;;;11.34;81.32;100056.84;1752488;80;27540;-68
2021/04/01 04:43:12;;;;;;;66.10;40.83;;;;;;;11.27;81.73;100048.74;1763535;80;21156;-69
2021/04/01 04:45:38;;;;;;;62.60;40.98;;;;;;;11.13;82.81;100054.17;1756678;80;21229;-69
2021/04/01 04:48:04;;;;;;;67.75;42.73;;;;;;;11.20;82.22;100050.41;1774062;80;21119;-69
2021/04/01 04:50:30;;;;;;;72.15;43.15;;;;;;;11.19;82.60;100050.56;1754648;79;21601;-69
2021/04/01 04:52:56;;;;;;;67.35;41.88;;;;;;;11.31;82.94;100050.55;1750607;80;26974;-69
2021/04/01 04:55:23;;;;;;;64.72;42.55;;;;;;;11.24;83.07;100049.06;1764816;80;25362;-69
2021/04/01 04:57:54;;;;;;;67.45;43.63;;;;;;;11.41;82.83;100047.27;1750447;80;21595;-69
2021/04/01 05:00:43;;;;;;;;;;;;;;;11.27;83.33;100040.81;1758073;80;21235;-69
2021/04/01 05:05:36;;;;;;;63.25;40.45;;;;;;;11.45;82.54;100037.19;1758005;80;21207;-69
2021/04/01 05:08:02;;;;;;;58.05;39.40;;;;;;;11.60;81.73;100041.33;1769148;80;21210;-69
2021/04/01 05:10:28;;;;;;;68.28;42.03;;;;;;;11.67;81.42;100035.72;1770201;79;21625;-68
2021/04/01 05:13:05;;;;;;;65.60;41.92;;;;;;;11.67;81.55;100029.10;1767087;80;21018;-70
2021/04/01 05:15:21;;;;;;;;;;;;;;;11.78;81.30;100031.41;1747116;80;21154;-69
2021/04/01 05:17:47;;;;;;;59.73;38.40;;;;;;;11.83;80.89;100027.75;1765416;80;20284;-69
2021/04/01 05:20:14;;;;;;;64.07;41.30;;;;;;;11.94;80.05;100025.80;1763297;79;20946;-69
2021/04/01 05:22:44;;;;;;;66.60;42.00;;;;;;;11.99;79.71;100028.75;1748462;80;27233;-69
2021/04/01 05:25:11;;;;;;;;;;;;;;;12.02;79.98;100031.91;1756715;80;21243;-70
2021/04/01 05:27:41;;;;;;;63.98;41.35;;;;;;;11.98;80.81;100021.83;1757870;80;20311;-69
2021/04/01 05:30:04;;;;;;;;;;;;;;;12.09;80.30;100016.17;1764320;80;21251;-69
2021/04/01 05:32:33;;;;;;;68.30;42.88;;;;;;;12.12;79.98;100021.13;1743892;80;20309;-71
2021/04/01 05:35:00;;;;;;;63.90;39.70;;;;;;;12.11;79.92;100014.17;1746074;80;21623;-70
2021/04/01 05:37:27;;;;;;;65.35;41.35;;;;;;;12.19;79.60;100012.81;1752320;80;21130;-69
2021/04/01 05:39:54;;;;;;;69.97;43.08;;;;;;;12.30;79.34;100006.83;1756651;80;21237;-69
2021/04/01 05:42:21;;;;;;;63.40;40.12;;;;;;;12.37;79.01;100006.48;1756873;80;21219;-69
2021/04/01 05:44:59;;;;;;;65.20;41.95;;;;;;;12.45;78.61;100002.47;1745676;79;21166;-69
2021/04/01 05:47:30;;;;;;;64.77;40.67;;;;;;;12.61;79.58;100000.24;1752775;80;21562;-69
2021/04/01 05:58:13;;;;;;;62.65;39.90;;;;;;;12.80;77.86;99999.48;1764932;80;21931;-68
2021/04/01 06:05:47;;;;;;;64.92;41.02;;;;;;;12.77;78.10;99990.08;1758980;80;21550;-68
2021/04/01 06:08:23;;;;;;;66.00;41.42;;;;;;;12.75;78.50;99983.63;1769335;80;22297;-68
2021/04/01 06:10:48;;;;;;;63.30;40.15;;;;;;;12.79;78.80;99981.95;1752119;80;21207;-68
2021/04/01 06:13:15;;;;;;;;;;;;;;;12.83;78.66;99980.08;1761663;80;21229;-68
2021/04/01 06:15:46;;;;;;;;;;;;;;;12.96;78.32;99975.55;1757456;80;20438;-68
2021/04/01 06:18:14;;;;;;;57.80;37.10;;;;;;;13.09;77.64;99977.09;1752997;80;20519;-68
2021/04/01 06:20:43;;;;;;;61.18;36.85;;;;;;;13.34;77.38;99980.91;1746843;80;21217;-68
2021/04/01 06:23:09;;;;;;;65.25;38.42;;;;;;;13.48;76.54;99981.96;1740637;80;21316;-68
2021/04/01 06:25:37;;;;;;;62.55;38.78;;;;;;;13.48;76.22;99983.29;1719135;80;21204;-67
2021/04/01 06:28:06;;;;;;;;;;;;;;;13.64;75.89;99983.16;1769321;80;21221;-68
2021/04/01 06:30:46;;;;;;;57.58;33.95;;;;;;;13.77;75.60;99978.55;1753389;80;22383;-68
2021/04/01 06:33:13;;;;;;;60.30;36.63;;;;;;;13.85;74.54;99985.59;1752371;80;21203;-67
2021/04/01 06:35:51;;;;;;;;;;;;;;;14.06;74.32;99986.70;1757828;80;21199;-67
2021/04/01 06:40:57;;;;;;;55.70;34.78;;;;;;;14.29;73.55;99980.81;1751826;79;21256;-68
2021/04/01 06:43:50;;;;;;;59.05;35.58;;;;;;;14.41;73.11;99977.16;1756998;80;21290;-67
2021/04/01 06:46:17;;;;;;;55.12;33.40;;;;;;;14.58;72.85;99969.80;1751463;80;21239;-68
2021/04/01 06:54:48;;;;;;;55.97;32.50;;;;;;;15.02;71.21;99968.05;1753293;80;21419;-67
2021/04/01 06:57:00;;;;;;;50.88;32.48;;;;;;;15.19;70.99;99963.30;1723038;80;21396;-70
2021/04/01 06:59:16;;;;;;;56.95;34.05;;;;;;;15.34;70.16;99964.05;1734631;80;21607;-69
2021/04/01 07:01:48;;;;;;;56.60;31.73;;;;;;;15.43;69.60;99958.90;1743396;80;21210;-69
2021/04/01 07:04:10;;;;;;;53.25;30.85;;;;;;;15.57;69.28;99957.68;1752828;80;21701;-69
2021/04/01 07:06:38;;;;;;;52.15;30.15;;;;;;;15.71;68.90;99950.09;1774059;80;21216;-69
2021/04/01 07:09:51;;;;;;;51.85;30.10;;;;;;;15.84;68.74;99949.38;1755556;80;21558;-70
2021/04/01 07:12:13;;;;;;;47.08;28.50;;;;;;;15.91;68.06;99944.08;1745241;80;21205;-69
2021/04/01 07:14:40;;;;;;;49.23;29.70;;;;;;;15.97;67.35;99944.62;1747358;80;21221;-69
2021/04/01 07:17:15;;;;;;;50.40;28.23;;;;;;;16.17;67.37;99945.25;1760465;80;21157;-68
2021/04/01 07:44:51;;;;;;;54.95;29.72;;;;;;;17.26;62.26;99926.14;1745761;80;21241;-69
2021/04/01 07:47:24;;;;;;;53.20;27.40;;;;;;;17.47;61.88;99924.59;1746833;80;21253;-68
2021/04/01 07:49:51;;;;;;;53.83;27.40;;;;;;;17.62;61.56;99924.87;1747762;80;21222;-69
2021/04/01 07:52:21;;;;;;;49.83;27.22;;;;;;;17.57;61.28;99914.33;1756678;80;21221;-68
2021/04/01 08:00:23;;;;;;;47.25;24.10;;;;;;;17.76;60.48;99913.16;1753218;80;21221;-69
2021/04/01 08:05:28;;;;;;;39.67;23.35;;;;;;;17.84;59.79;99915.59;1747833;80;21618;-68
2021/04/01 08:07:58;;;;;;;51.13;26.27;;;;;;;17.80;59.97;99914.36;1734484;80;21216;-68
2021/04/01 08:10:27;;;;;;;48.28;25.30;;;;;;;17.79;60.13;99907.41;1754080;80;21224;-70
2021/04/01 08:13:02;;;;;;;45.70;25.92;;;;;;;17.86;59.88;99913.53;1751283;80;21715;-68
2021/04/01 08:15:26;;;;;;;47.53;25.80;;;;;;;17.91;59.51;99908.43;1745729;80;21229;-68
2021/04/01 08:18:10;;;;;;;47.90;26.77;;;;;;;17.86;59.86;99904.18;1753881;80;21638;-68
2021/04/01 08:20:31;;;;;;;43.92;25.48;;;;;;;17.91;60.08;99904.42;1753516;80;21183;-66
2021/04/01 08:25:28;;;;;;;47.95;25.65;;;;;;;18.04;60.03;99895.53;1749377;80;21237;-69
2021/04/01 08:28:10;;;;;;;50.73;24.57;;;;;;;18.02;59.83;99902.11;1741102;80;21783;-68
2021/04/01 08:35:57;;;;;;;41.33;24.45;;;;;;;18.13;59.29;99892.09;1699639;80;21164;-71
2021/04/01 08:38:25;;;;;;;47.23;24.25;;;;;;;18.32;59.02;99885.03;1724025;80;21219;-70
2021/04/01 08:40:51;;;;;;;42.67;23.12;;;;;;;18.43;58.78;99883.53;1760668;80;21156;-70
2021/04/01 08:43:51;;;;;;;43.65;22.77;;;;;;;18.56;57.51;99880.77;1749616;80;21192;-70
2021/04/01 08:46:38;;;;;;;38.10;22.02;;;;;;;18.66;57.14;99883.80;1767773;80;21659;-71
2021/04/01 08:49:23;;;;;;;43.48;22.45;;;;;;;18.57;56.43;99877.06;1763470;80;21217;-71
2021/04/01 08:52:11;;;;;;;38.55;22.00;;;;;;;18.65;56.18;99878.13;1755464;80;21662;-71
2021/04/01 08:54:50;;;;;;;39.92;21.17;;;;;;;18.74;54.93;99873.88;1768517;80;21132;-71
2021/04/01 08:57:31;;;;;;;38.45;20.32;;;;;;;18.81;54.66;99866.61;1752571;80;21207;-70
2021/04/01 09:00:11;;;;;;;37.75;20.43;;;;;;;18.95;53.96;99860.14;1745284;80;21180;-70
2021/04/01 09:02:36;;;;;;;33.85;19.17;;;;;;;19.15;54.52;99856.48;1747698;80;21257;-69
2021/04/01 09:05:08;;;;;;;34.65;18.73;;;;;;;19.26;54.23;99860.30;1751649;80;20934;-69
2021/04/01 09:07:55;;;;;;;35.43;18.82;;;;;;;19.31;54.22;99857.27;1751701;80;21209;-70
2021/04/01 09:10:23;;;;;;;40.03;20.17;;;;;;;19.48;53.98;99839.27;1744346;80;21223;-71
2021/04/01 09:13:06;;;;;;;36.83;18.77;;;;;;;19.56;53.02;99844.35;1749957;80;20946;-71
2021/04/01 09:15:37;;;;;;;39.48;19.30;;;;;;;19.62;52.50;99843.44;1749937;80;21907;-72
2021/04/01 09:17:56;;;;;;;35.17;18.32;;;;;;;19.53;52.09;99840.25;1752331;80;21498;-70
2021/04/01 09:20:24;;;;;;;36.70;18.85;;;;;;;19.71;51.43;99834.05;1718697;80;21764;-70
2021/04/01 09:22:53;;;;;;;35.33;17.15;;;;;;;19.77;51.06;99834.25;1757167;80;21731;-71
2021/04/01 09:25:20;;;;;;;31.82;17.02;;;;;;;19.90;50.88;99832.73;1750201;80;21176;-70
2021/04/01 09:27:53;;;;;;;32.58;17.02;;;;;;;20.08;50.80;99822.52;1762213;80;21554;-69
2021/04/01 09:30:23;;;;;;;33.63;16.45;;;;;;;20.07;50.36;99831.59;1761711;80;21199;-70
2021/04/01 09:32:52;;;;;;;31.65;17.12;;;;;;;20.15;49.52;99818.39;1743313;80;21531;-69
2021/04/01 09:35:18;;;;;;;32.38;16.17;;;;;;;20.07;49.52;99821.70;1757188;80;21631;-70
2021/04/01 09:38:07;;;;;;;32.05;15.98;;;;;;;20.28;49.44;99819.56;1759376;80;21639;-70
2021/04/01 09:40:39;;;;;;;29.15;15.50;;;;;;;20.18;48.59;99813.92;1744222;80;21201;-68
2021/04/01 09:43:18;;;;;;;30.50;15.35;;;;;;;20.45;48.87;99817.85;1766607;80;21207;-68
2021/04/01 09:45:48;;;;;;;34.03;16.45;;;;;;;20.40;47.72;99821.76;1743875;80;21720;-68
2021/04/01 09:48:16;;;;;;;34.50;16.23;;;;;;;20.55;47.52;99805.75;1744871;80;21200;-68
2021/04/01 09:50:46;;;;;;;32.25;16.10;;;;;;;20.65;46.96;99810.56;1720289;81;21183;-70
2021/04/01 09:53:21;;;;;;;32.58;15.30;;;;;;;20.76;47.10;99801.20;1755002;81;21685;-68
2021/04/01 09:55:49;;;;;;;29.92;14.25;;;;;;;20.96;47.09;99793.34;1751192;81;21191;-68
2021/04/01 09:58:33;;;;;;;31.52;15.60;;;;;;;20.95;46.52;99799.75;1715459;81;21788;-69
2021/04/01 10:04:24;;;;;;;28.23;14.10;;;;;;;21.04;46.26;99787.63;1742576;81;21232;-69
2021/04/01 10:06:50;;;;;;;29.80;13.30;;;;;;;21.10;46.21;99784.50;1698410;81;21227;-69
2021/04/01 10:09:24;;;;;;;30.02;14.10;;;;;;;21.29;46.00;99781.18;1750267;81;21209;-67
2021/04/01 10:12:01;;;;;;;32.67;14.73;;;;;;;21.04;45.52;99787.63;1723675;81;21240;-67
2021/04/01 10:14:28;;;;;;;31.85;15.30;;;;;;;21.11;45.53;99773.53;1748622;81;21187;-69
2021/04/01 10:17:02;;;;;;;29.02;14.28;;;;;;;21.14;45.67;99781.11;1740491;81;21244;-70
2021/04/01 10:19:33;;;;;;;33.48;14.10;;;;;;;21.05;45.45;99775.84;1750646;81;21254;-69
2021/04/01 10:21:59;;;;;;;28.98;14.83;;;;;;;21.25;45.44;99769.27;1759463;81;21175;-70
2021/04/01 10:24:30;;;;;;;30.65;14.25;;;;;;;21.40;45.21;99765.55;1747903;81;22247;-67
2021/04/01 10:27:18;;;;;;;30.20;14.07;;;;;;;21.48;44.28;99767.87;1752871;81;21176;-70
2021/04/01 10:32:11;;;;;;;35.17;15.15;;;;;;;21.45;44.23;99763.50;1749906;81;21619;-71
2021/04/01 10:34:54;;;;;;;32.35;14.68;;;;;;;21.58;42.94;99732.88;1749874;81;20955;-70
2021/04/01 10:37:21;;;;;;;32.65;14.13;;;;;;;21.58;42.94;99732.88;1749137;81;21236;-71
2021/04/01 10:39:47;;;;;;;32.83;15.13;;;;;;;21.64;42.58;99747.55;1761740;81;21223;-70
2021/04/01 10:42:14;;;;;;;30.55;14.03;;;;;;;21.60;42.33;99745.03;1755153;81;20973;-71
2021/04/01 10:44:40;;;;;;;31.70;14.33;;;;;;;21.68;42.42;99739.81;1752028;81;21957;-69
2021/04/01 10:47:08;;;;;;;29.48;14.10;;;;;;;21.71;42.16;99743.36;1748905;81;21183;-69
2021/04/01 10:49:36;;;;;;;32.30;14.93;;;;;;;21.60;41.47;99738.86;1714632;81;22186;-69
2021/04/01 10:52:05;;;;;;;;;;;;;;;21.32;40.87;99743.11;1739964;81;21211;-68
2021/04/01 10:54:40;;;;;;;31.42;14.80;;;;;;;21.48;41.91;99732.13;1736871;81;20686;-68
2021/04/01 10:57:09;;;;;;;30.92;14.40;;;;;;;21.61;40.00;99738.62;1738695;81;21269;-69
2021/04/01 10:59:45;;;;;;;25.75;14.07;;;;;;;21.64;39.43;99731.42;1748630;81;21251;-70
2021/04/01 11:02:23;;;;;;;33.95;15.08;;;;;;;21.43;36.04;99738.22;1758932;81;21249;-70
2021/04/01 11:04:56;;;;;;;31.25;14.40;;;;;;;21.32;36.11;99732.36;1748960;81;21157;-70
2021/04/01 11:07:21;;;;;;;31.10;14.23;;;;;;;21.57;37.67;99729.93;1739813;81;21231;-69
2021/04/01 11:09:49;;;;;;;34.33;14.00;;;;;;;21.65;36.99;99725.51;1739695;81;20935;-68
2021/04/01 11:12:18;;;;;;;29.30;13.20;;;;;;;21.67;35.75;99720.70;1746097;81;21183;-67
2021/04/01 11:14:51;;;;;;;26.42;12.35;;;;;;;21.78;36.05;99720.36;1750709;81;21692;-69
2021/04/01 11:17:23;;;;;;;30.90;14.23;;;;;;;21.70;35.99;99717.53;1751708;81;21195;-70
2021/04/01 11:19:52;;;;;;;31.75;13.75;;;;;;;21.85;36.03;99717.02;1739020;81;21158;-68
2021/04/01 11:22:17;;;;;;;32.33;14.07;;;;;;;21.92;36.46;99714.16;1738256;81;21195;-69
2021/04/01 11:24:43;;;;;;;31.27;14.30;;;;;;;22.15;35.76;99715.91;1736718;81;20955;-69
2021/04/01 11:27:19;;;;;;;26.15;12.47;;;;;;;22.11;36.12;99710.21;1741608;81;21095;-69
2021/04/01 11:29:56;;;;;;;29.32;13.32;;;;;;;22.04;35.72;99712.23;1716699;81;21233;-69
2021/04/01 11:32:26;;;;;;;28.85;13.50;;;;;;;22.19;34.00;99711.14;1742235;81;21229;-69
2021/04/01 11:34:57;;;;;;;28.10;13.50;;;;;;;22.18;33.79;99694.71;1733983;81;21220;-70
2021/04/01 11:37:25;;;;;;;21.68;11.10;;;;;;;22.18;34.11;99705.47;1739342;81;21205;-69
2021/04/01 11:39:57;;;;;;;24.23;11.00;;;;;;;22.12;30.91;99710.47;1736400;81;21206;-69
2021/04/01 11:42:23;;;;;;;27.48;12.15;;;;;;;22.16;31.44;99705.45;1749122;81;21228;-69
2021/04/01 11:45:01;;;;;;;23.52;12.05;;;;;;;22.07;32.08;99687.55;1732623;81;21055;-69
2021/04/01 11:47:30;;;;;;;28.10;12.40;;;;;;;22.14;32.80;99698.97;1750115;81;21221;-68
2021/04/01 11:49:56;;;;;;;26.35;12.37;;;;;;;22.07;32.75;99689.42;1759178;81;21230;-69
2021/04/01 11:52:22;;;;;;;27.05;12.82;;;;;;;22.26;33.39;99680.04;1758989;81;22481;-68
2021/04/01 11:54:53;;;;;;;26.57;11.97;;;;;;;22.23;32.35;99681.36;1759721;81;21231;-68
2021/04/01 11:57:32;;;;;;;27.32;13.05;;;;;;;22.36;31.90;99682.13;1750143;81;21129;-68
2021/04/01 12:00:10;;;;;;;25.37;11.90;;;;;;;22.36;31.86;99680.78;1752519;81;21941;-68
2021/04/01 12:02:33;;;;;;;29.20;12.53;;;;;;;22.37;32.96;99684.58;1765863;81;21458;-68
2021/04/01 12:05:01;;;;;;;35.88;12.60;;;;;;;22.59;33.26;99678.41;1694201;81;21584;-68
2021/04/01 12:07:29;;;;;;;29.27;11.97;;;;;;;22.64;32.12;99679.02;1741887;81;21162;-68
2021/04/01 12:09:54;;;;;;;24.55;11.55;;;;;;;22.79;32.05;99665.77;1757381;81;21240;-69
2021/04/01 12:12:31;;;;;;;23.98;11.33;;;;;;;22.87;30.82;99671.25;1737033;81;21661;-69
2021/04/01 12:14:56;;;;;;;28.60;11.18;;;;;;;22.72;28.87;99674.57;1763929;81;21168;-68
2021/04/01 12:17:38;;;;;;;21.75;10.90;;;;;;;22.69;29.02;99677.76;1743932;81;21036;-69
2021/04/01 12:20:13;;;;;;;21.75;10.32;;;;;;;22.80;30.50;99678.17;1742651;81;21205;-69
2021/04/01 12:22:43;;;;;;;19.25;8.58;;;;;;;22.72;28.38;99683.45;1746550;81;21216;-70
2021/04/01 12:25:13;;;;;;;26.15;10.13;;;;;;;22.54;24.41;99661.69;1749949;81;21191;-70
2021/04/01 12:27:39;;;;;;;15.00;7.58;;;;;;;22.75;26.71;99656.03;1749588;81;21183;-68
2021/04/01 12:30:09;;;;;;;16.80;8.30;;;;;;;22.65;20.04;99655.89;1747600;81;22020;-68
2021/04/01 12:32:35;;;;;;;21.90;10.32;;;;;;;22.72;22.08;99643.61;1746935;81;21529;-68
2021/04/01 12:35:07;;;;;;;20.87;10.10;;;;;;;22.63;25.82;99646.45;1744270;81;21272;-69
2021/04/01 12:37:33;;;;;;;19.87;8.88;;;;;;;22.85;25.42;99637.84;1744310;81;21223;-68
2021/04/01 12:40:17;;;;;;;22.60;9.35;;;;;;;23.08;26.72;99654.32;1722157;81;20971;-68
2021/04/01 12:42:43;;;;;;;23.60;11.05;;;;;;;22.88;25.25;99650.81;1747818;81;21236;-68
2021/04/01 12:45:23;;;;;;;24.12;10.82;;;;;;;22.89;26.50;99629.56;1749831;81;27680;-68
2021/04/01 12:47:54;;;;;;;25.52;12.45;;;;;;;22.71;25.68;99637.40;1745528;80;21675;-69
2021/04/01 12:50:19;;;;;;;24.47;13.30;;;;;;;22.81;27.52;99636.73;1748843;80;21285;-67